Time,TemperatureF,DewpointF,PressureIn,WindDirection,WindDirectionDegrees,WindSpeedMPH,WindSpeedGustMPH,Humidity,HourlyPrecipIn,Conditions,Clouds,dailyrainin,SoftwareType,DateUTC
2013-03-13 00:04:00,30.7,23.7,30.25,SE,141,0.0,0.0,75,0.00,,---,0.00,VWS V14.01,2013-03-13 07:04:00,
2013-03-13 00:09:00,30.5,23.2,30.25,SE,141,0.0,0.0,74,0.00,,---,0.00,VWS V14.01,2013-03-13 07:09:00,
2013-03-13 00:14:00,30.2,22.9,30.25,SE,141,0.0,0.0,74,0.00,,---,0.00,VWS V14.01,2013-03-13 07:14:00,
2013-03-13 00:19:00,30.0,22.7,30.25,SE,141,0.0,0.0,74,0.00,,---,0.00,VWS V14.01,2013-03-13 07:19:00,
2013-03-13 00:25:00,29.7,22.8,30.25,SE,141,0.0,0.0,75,0.00,,---,0.00,VWS V14.01,2013-03-13 07:25:00,
2013-03-13 00:30:00,29.8,22.9,30.25,SE,141,0.0,0.0,75,0.00,,---,0.00,VWS V14.01,2013-03-13 07:30:00,
2013-03-13 00:35:00,29.9,23.9,30.25,SE,141,0.0,0.0,78,0.00,,---,0.00,VWS V14.01,2013-03-13 07:35:00,
2013-03-13 00:40:00,30.2,23.9,30.25,SE,141,0.0,0.0,77,0.00,,---,0.00,VWS V14.01,2013-03-13 07:40:00,
2013-03-13 00:45:00,30.5,24.2,30.25,SE,141,0.0,0.0,77,0.00,,---,0.00,VWS V14.01,2013-03-13 07:45:00,
2013-03-13 00:50:00,30.6,22.7,30.25,SE,141,0.0,0.0,72,0.00,,---,0.00,VWS V14.01,2013-03-13 07:50:00,
2013-03-13 00:55:00,30.4,22.5,30.26,SE,141,0.0,0.0,72,0.00,,---,0.00,VWS V14.01,2013-03-13 07:55:00,
2013-03-13 01:00:00,30.0,22.1,30.26,SE,141,0.0,0.0,72,0.00,,---,0.00,VWS V14.01,2013-03-13 08:00:00,
2013-03-13 01:07:00,29.8,22.9,30.26,SE,141,0.0,0.0,75,0.00,,---,0.00,VWS V14.01,2013-03-13 08:07:00,
2013-03-13 01:12:00,29.6,23.0,30.26,SE,141,0.0,0.0,76,0.00,,---,0.00,VWS V14.01,2013-03-13 08:12:00,
2013-03-13 01:17:00,29.3,21.7,30.26,SE,141,0.0,0.0,73,0.00,,---,0.00,VWS V14.01,2013-03-13 08:17:00,
2013-03-13 01:22:00,29.2,21.3,30.26,SE,141,0.0,0.0,72,0.00,,---,0.00,VWS V14.01,2013-03-13 08:22:00,
2013-03-13 01:27:00,29.3,21.4,30.26,SE,141,0.0,0.0,72,0.00,,---,0.00,VWS V14.01,2013-03-13 08:27:00,
2013-03-13 01:32:00,29.2,21.3,30.26,SE,141,0.0,0.0,72,0.00,,---,0.00,VWS V14.01,2013-03-13 08:32:00,
2013-03-13 01:37:00,29.2,22.0,30.26,SE,141,0.0,0.0,74,0.00,,---,0.00,VWS V14.01,2013-03-13 08:37:00,
2013-03-13 01:43:00,29.0,21.4,30.26,SE,141,0.0,0.0,73,0.00,,---,0.00,VWS V14.01,2013-03-13 08:43:00,
2013-03-13 01:48:00,28.8,22.2,30.25,SE,141,0.0,0.0,76,0.00,,---,0.00,VWS V14.01,2013-03-13 08:48:00,
2013-03-13 01:53:00,28.8,22.5,30.26,SE,141,0.0,0.0,77,0.00,,---,0.00,VWS V14.01,2013-03-13 08:53:00,
2013-03-13 01:58:00,29.0,22.1,30.25,SE,141,0.0,0.0,75,0.00,,---,0.00,VWS V14.01,2013-03-13 08:58:00,
2013-03-13 02:03:00,29.3,21.7,30.26,SE,141,0.0,0.0,73,0.00,,---,0.00,VWS V14.01,2013-03-13 09:03:00,
2013-03-13 02:08:00,29.5,21.6,30.25,SE,141,0.0,0.0,72,0.00,,---,0.00,VWS V14.01,2013-03-13 09:08:00,
2013-03-13 02:13:00,29.2,21.3,30.25,SE,141,0.0,0.0,72,0.00,,---,0.00,VWS V14.01,2013-03-13 09:13:00,
2013-03-13 02:18:00,28.9,21.7,30.26,SE,141,0.0,0.0,74,0.00,,---,0.00,VWS V14.01,2013-03-13 09:18:00,
2013-03-13 02:23:00,28.5,21.6,30.25,SE,141,0.0,0.0,75,0.00,,---,0.00,VWS V14.01,2013-03-13 09:23:00,
2013-03-13 02:28:00,28.2,21.0,30.25,SE,141,0.0,0.0,74,0.00,,---,0.00,VWS V14.01,2013-03-13 09:28:00,
2013-03-13 02:33:00,28.4,21.2,30.25,SE,141,0.0,0.0,74,0.00,,---,0.00,VWS V14.01,2013-03-13 09:33:00,
2013-03-13 02:39:00,28.4,20.9,30.25,SE,141,0.0,0.0,73,0.00,,---,0.00,VWS V14.01,2013-03-13 09:39:00,
2013-03-13 02:45:00,28.3,20.4,30.25,SE,141,0.0,0.0,72,0.00,,---,0.00,VWS V14.01,2013-03-13 09:45:00,
2013-03-13 02:50:00,28.2,20.0,30.25,SE,141,0.0,0.0,71,0.00,,---,0.00,VWS V14.01,2013-03-13 09:50:00,
2013-03-13 02:55:00,28.4,20.5,30.25,SE,141,0.0,0.0,72,0.00,,---,0.00,VWS V14.01,2013-03-13 09:55:00,
2013-03-13 03:00:00,28.9,20.7,30.25,SE,141,0.0,0.0,71,0.00,,---,0.00,VWS V14.01,2013-03-13 10:00:00,
2013-03-13 03:05:00,29.0,20.8,30.25,SE,141,0.0,0.0,71,0.00,,---,0.00,VWS V14.01,2013-03-13 10:05:00,
2013-03-13 03:10:00,28.9,20.7,30.25,SE,141,0.0,0.0,71,0.00,,---,0.00,VWS V14.01,2013-03-13 10:10:00,
2013-03-13 03:15:00,28.8,20.6,30.24,SE,141,0.0,0.0,71,0.00,,---,0.00,VWS V14.01,2013-03-13 10:15:00,
2013-03-13 03:20:00,28.6,20.1,30.24,SE,141,0.0,0.0,70,0.00,,---,0.00,VWS V14.01,2013-03-13 10:20:00,
2013-03-13 03:25:00,28.2,20.0,30.24,SE,141,0.0,0.0,71,0.00,,---,0.00,VWS V14.01,2013-03-13 10:25:00,
2013-03-13 03:30:00,27.9,20.4,30.24,SE,141,0.0,0.0,73,0.00,,---,0.00,VWS V14.01,2013-03-13 10:30:00,
2013-03-13 03:35:00,27.5,20.0,30.24,SE,141,0.0,0.0,73,0.00,,---,0.00,VWS V14.01,2013-03-13 10:35:00,
2013-03-13 03:40:00,27.3,19.5,30.24,SE,141,0.0,0.0,72,0.00,,---,0.00,VWS V14.01,2013-03-13 10:40:00,
2013-03-13 03:45:00,27.4,19.6,30.24,SE,141,0.0,0.0,72,0.00,,---,0.00,VWS V14.01,2013-03-13 10:45:00,
2013-03-13 03:50:00,27.4,19.2,30.24,SE,141,0.0,0.0,71,0.00,,---,0.00,VWS V14.01,2013-03-13 10:50:00,
2013-03-13 03:55:00,27.5,19.4,30.24,SE,141,0.0,0.0,71,0.00,,---,0.00,VWS V14.01,2013-03-13 10:55:00,
2013-03-13 04:01:00,28.0,20.2,30.24,SE,141,0.0,0.0,72,0.00,,---,0.00,VWS V14.01,2013-03-13 11:01:00,
2013-03-13 04:06:00,28.7,20.5,30.24,SE,141,0.0,0.0,71,0.00,,---,0.00,VWS V14.01,2013-03-13 11:06:00,
2013-03-13 04:11:00,29.3,20.4,30.24,SE,141,0.0,0.0,69,0.00,,---,0.00,VWS V14.01,2013-03-13 11:11:00,
2013-03-13 04:16:00,29.3,19.0,30.24,SE,141,0.0,0.0,65,0.00,,---,0.00,VWS V14.01,2013-03-13 11:16:00,
2013-03-13 04:21:00,29.1,19.2,30.25,SE,141,0.0,0.0,66,0.00,,---,0.00,VWS V14.01,2013-03-13 11:21:00,
2013-03-13 04:26:00,28.8,18.9,30.25,SE,141,0.0,0.0,66,0.00,,---,0.00,VWS V14.01,2013-03-13 11:26:00,
2013-03-13 04:32:00,28.7,19.1,30.25,SE,141,0.0,0.0,67,0.00,,---,0.00,VWS V14.01,2013-03-13 11:32:00,
2013-03-13 04:37:00,28.4,19.2,30.25,SE,141,0.0,0.0,68,0.00,,---,0.00,VWS V14.01,2013-03-13 11:37:00,
2013-03-13 04:42:00,28.4,18.9,30.25,SE,141,0.0,0.0,67,0.00,,---,0.00,VWS V14.01,2013-03-13 11:42:00,
2013-03-13 04:47:00,28.7,18.8,30.25,SE,141,0.0,0.0,66,0.00,,---,0.00,VWS V14.01,2013-03-13 11:47:00,
2013-03-13 04:52:00,28.8,18.5,30.25,SE,141,0.0,0.0,65,0.00,,---,0.00,VWS V14.01,2013-03-13 11:52:00,
2013-03-13 04:57:00,28.6,18.7,30.25,SE,141,0.0,0.0,66,0.00,,---,0.00,VWS V14.01,2013-03-13 11:57:00,
2013-03-13 05:02:00,28.0,19.8,30.25,SE,141,0.0,0.0,71,0.00,,---,0.00,VWS V14.01,2013-03-13 12:02:00,
2013-03-13 05:07:00,27.5,19.7,30.26,SE,141,0.0,0.0,72,0.00,,---,0.00,VWS V14.01,2013-03-13 12:07:00,
2013-03-13 05:12:00,27.0,19.8,30.26,SE,141,0.0,0.0,74,0.00,,---,0.00,VWS V14.01,2013-03-13 12:12:00,
2013-03-13 05:18:00,26.7,19.5,30.26,SE,141,0.0,0.0,74,0.00,,---,0.00,VWS V14.01,2013-03-13 12:18:00,
2013-03-13 05:23:00,26.4,19.6,30.26,SE,141,0.0,0.0,75,0.00,,---,0.00,VWS V14.01,2013-03-13 12:23:00,
2013-03-13 05:28:00,26.2,18.7,30.27,SE,141,0.0,0.0,73,0.00,,---,0.00,VWS V14.01,2013-03-13 12:28:00,
2013-03-13 05:33:00,26.1,18.3,30.26,SE,141,0.0,0.0,72,0.00,,---,0.00,VWS V14.01,2013-03-13 12:33:00,
2013-03-13 05:38:00,26.0,18.2,30.27,SE,141,0.0,0.0,72,0.00,,---,0.00,VWS V14.01,2013-03-13 12:38:00,
2013-03-13 05:43:00,26.0,18.5,30.27,SE,141,0.0,0.0,73,0.00,,---,0.00,VWS V14.01,2013-03-13 12:43:00,
2013-03-13 05:48:00,25.9,18.1,30.27,SE,141,0.0,0.0,72,0.00,,---,0.00,VWS V14.01,2013-03-13 12:48:00,
2013-03-13 05:53:00,26.0,18.5,30.27,SE,141,0.0,0.0,73,0.00,,---,0.00,VWS V14.01,2013-03-13 12:53:00,
2013-03-13 05:58:00,26.2,18.1,30.27,SE,141,0.0,0.0,71,0.00,,---,0.00,VWS V14.01,2013-03-13 12:58:00,
2013-03-13 06:03:00,26.3,18.5,30.27,SE,141,0.0,0.0,72,0.00,,---,0.00,VWS V14.01,2013-03-13 13:03:00,
2013-03-13 06:08:00,26.2,18.4,30.28,SE,141,0.0,0.0,72,0.00,,---,0.00,VWS V14.01,2013-03-13 13:08:00,
2013-03-13 06:13:00,26.3,18.2,30.27,SE,141,0.0,0.0,71,0.00,,---,0.00,VWS V14.01,2013-03-13 13:13:00,
2013-03-13 06:18:00,26.5,17.7,30.27,SE,141,0.0,0.0,69,0.00,,---,0.00,VWS V14.01,2013-03-13 13:18:00,
2013-03-13 06:24:00,27.4,18.9,30.28,SE,141,0.0,0.0,70,0.00,,---,0.00,VWS V14.01,2013-03-13 13:24:00,
2013-03-13 06:29:00,28.0,18.8,30.28,SE,141,0.0,0.0,68,0.00,,---,0.00,VWS V14.01,2013-03-13 13:29:00,
2013-03-13 06:34:00,28.2,19.0,30.28,SE,141,0.0,0.0,68,0.00,,---,0.00,VWS V14.01,2013-03-13 13:34:00,
2013-03-13 06:39:00,28.0,18.5,30.28,SE,141,0.0,0.0,67,0.00,,---,0.00,VWS V14.01,2013-03-13 13:39:00,
2013-03-13 06:44:00,27.7,18.2,30.28,SE,141,0.0,0.0,67,0.00,,---,0.00,VWS V14.01,2013-03-13 13:44:00,
2013-03-13 06:49:00,27.3,18.1,30.28,SE,141,0.0,0.0,68,0.00,,---,0.00,VWS V14.01,2013-03-13 13:49:00,
2013-03-13 06:54:00,27.2,17.7,30.28,SE,141,0.0,0.0,67,0.00,,---,0.00,VWS V14.01,2013-03-13 13:54:00,
2013-03-13 06:59:00,27.0,18.5,30.29,SE,141,0.0,0.0,70,0.00,,---,0.00,VWS V14.01,2013-03-13 13:59:00,
2013-03-13 07:04:00,26.7,18.9,30.29,SE,141,0.0,0.0,72,0.00,,---,0.00,VWS V14.01,2013-03-13 14:04:00,
2013-03-13 07:09:00,26.4,18.0,30.29,SE,141,0.0,0.0,70,0.00,,---,0.00,VWS V14.01,2013-03-13 14:09:00,
2013-03-13 07:14:00,26.4,18.3,30.29,SE,141,0.0,0.0,71,0.00,,---,0.00,VWS V14.01,2013-03-13 14:14:00,
2013-03-13 07:20:00,26.9,18.8,30.29,SE,141,0.0,0.0,71,0.00,,---,0.00,VWS V14.01,2013-03-13 14:20:00,
2013-03-13 07:25:00,26.9,18.4,30.29,SE,141,0.0,0.0,70,0.00,,---,0.00,VWS V14.01,2013-03-13 14:25:00,
2013-03-13 07:30:00,26.9,17.8,30.29,SE,141,0.0,0.0,68,0.00,,---,0.00,VWS V14.01,2013-03-13 14:30:00,
2013-03-13 07:35:00,26.9,18.1,30.30,SE,141,0.0,0.0,69,0.00,,---,0.00,VWS V14.01,2013-03-13 14:35:00,
2013-03-13 07:40:00,27.0,18.5,30.30,SE,141,0.0,0.0,70,0.00,,---,0.00,VWS V14.01,2013-03-13 14:40:00,
2013-03-13 07:45:00,27.0,18.9,30.30,SE,141,0.0,0.0,71,0.00,,---,0.00,VWS V14.01,2013-03-13 14:45:00,
2013-03-13 07:50:00,27.1,19.3,30.30,SE,141,0.0,0.0,72,0.00,,---,0.00,VWS V14.01,2013-03-13 14:50:00,
2013-03-13 07:55:00,27.2,19.4,30.30,SE,141,0.0,0.0,72,0.00,,---,0.00,VWS V14.01,2013-03-13 14:55:00,
2013-03-13 08:00:00,27.6,20.1,30.30,SE,141,0.0,0.0,73,0.00,,---,0.00,VWS V14.01,2013-03-13 15:00:00,
2013-03-13 08:06:00,29.1,20.9,30.30,SE,141,0.0,0.0,71,0.00,,---,0.00,VWS V14.01,2013-03-13 15:06:00,
2013-03-13 08:11:00,31.0,22.4,30.30,SE,141,0.0,0.0,70,0.00,,---,0.00,VWS V14.01,2013-03-13 15:11:00,
2013-03-13 08:17:00,33.0,22.9,30.30,SE,141,0.0,0.0,66,0.00,,---,0.00,VWS V14.01,2013-03-13 15:17:00,
2013-03-13 08:22:00,33.3,22.8,30.30,SE,141,0.0,0.0,65,0.00,,---,0.00,VWS V14.01,2013-03-13 15:22:00,
2013-03-13 08:27:00,33.4,22.5,30.30,SE,141,0.0,0.0,64,0.00,,---,0.00,VWS V14.01,2013-03-13 15:27:00,
2013-03-13 08:32:00,33.8,22.9,30.30,SE,141,0.0,0.0,64,0.00,,---,0.00,VWS V14.01,2013-03-13 15:32:00,
2013-03-13 08:37:00,34.5,23.2,30.30,SE,141,0.0,0.0,63,0.00,,---,0.00,VWS V14.01,2013-03-13 15:37:00,
2013-03-13 08:43:00,35.8,24.1,30.30,SE,141,0.0,1.0,62,0.00,,---,0.00,VWS V14.01,2013-03-13 15:43:00,
2013-03-13 08:48:00,36.8,24.6,30.30,SE,141,0.0,0.0,61,0.00,,---,0.00,VWS V14.01,2013-03-13 15:48:00,
2013-03-13 08:53:00,37.9,24.9,30.30,SE,141,0.0,0.0,59,0.00,,---,0.00,VWS V14.01,2013-03-13 15:53:00,
2013-03-13 08:59:00,39.8,25.8,30.30,SE,139,0.0,0.0,57,0.00,,---,0.00,VWS V14.01,2013-03-13 15:59:00,
2013-03-13 09:04:00,42.0,26.1,30.30,SE,140,0.0,0.0,53,0.00,,---,0.00,VWS V14.01,2013-03-13 16:04:00,
2013-03-13 09:09:00,44.0,26.1,30.30,SE,139,0.0,1.0,49,0.00,,---,0.00,VWS V14.01,2013-03-13 16:09:00,
2013-03-13 09:14:00,45.8,26.2,30.30,SE,139,0.0,0.0,46,0.00,,---,0.00,VWS V14.01,2013-03-13 16:14:00,
2013-03-13 09:19:00,47.3,26.0,30.30,NNE,18,1.0,1.0,43,0.00,,---,0.00,VWS V14.01,2013-03-13 16:19:00,
2013-03-13 09:24:00,48.7,25.5,30.30,NE,39,0.0,0.0,40,0.00,,---,0.00,VWS V14.01,2013-03-13 16:24:00,
2013-03-13 09:29:00,50.3,26.3,30.30,NNE,21,0.0,1.0,39,0.00,,---,0.00,VWS V14.01,2013-03-13 16:29:00,
2013-03-13 09:34:00,51.4,25.4,30.30,NE,46,0.0,2.0,36,0.00,,---,0.00,VWS V14.01,2013-03-13 16:34:00,
2013-03-13 09:39:00,52.6,25.0,30.30,NNE,25,1.0,2.0,34,0.00,,---,0.00,VWS V14.01,2013-03-13 16:39:00,
2013-03-13 09:44:00,53.7,24.6,30.30,NNE,31,3.0,4.0,32,0.00,,---,0.00,VWS V14.01,2013-03-13 16:44:00,
2013-03-13 09:49:00,54.9,24.9,30.30,NE,49,3.0,3.0,31,0.00,,---,0.00,VWS V14.01,2013-03-13 16:49:00,
2013-03-13 09:54:00,55.8,24.0,30.30,NNW,334,3.0,3.0,29,0.00,,---,0.00,VWS V14.01,2013-03-13 16:54:00,
2013-03-13 09:59:00,56.7,24.0,30.30,SE,131,1.0,3.0,28,0.00,,---,0.00,VWS V14.01,2013-03-13 16:59:00,
2013-03-13 10:05:00,57.3,21.8,30.29,NE,47,2.0,4.0,25,0.00,,---,0.00,VWS V14.01,2013-03-13 17:05:00,
2013-03-13 10:10:00,57.7,21.2,30.29,NE,44,3.0,5.0,24,0.00,,---,0.00,VWS V14.01,2013-03-13 17:10:00,
2013-03-13 10:15:00,58.2,23.5,30.29,NNE,31,2.0,3.0,26,0.00,,---,0.00,VWS V14.01,2013-03-13 17:15:00,
2013-03-13 10:20:00,58.7,21.0,30.29,East,79,2.0,5.0,23,0.00,,---,0.00,VWS V14.01,2013-03-13 17:20:00,
2013-03-13 10:25:00,58.9,21.2,30.29,NE,55,1.0,3.0,23,0.00,,---,0.00,VWS V14.01,2013-03-13 17:25:00,
2013-03-13 10:30:00,59.3,21.5,30.29,NE,34,2.0,2.0,23,0.00,,---,0.00,VWS V14.01,2013-03-13 17:30:00,
2013-03-13 10:36:00,59.6,22.8,30.29,NE,38,2.0,2.0,24,0.00,,---,0.00,VWS V14.01,2013-03-13 17:36:00,
2013-03-13 10:41:00,59.9,18.8,30.29,ENE,73,0.0,2.0,20,0.00,,---,0.00,VWS V14.01,2013-03-13 17:41:00,
2013-03-13 10:46:00,60.3,20.2,30.28,NNW,331,4.0,5.0,21,0.00,,---,0.00,VWS V14.01,2013-03-13 17:46:00,
2013-03-13 10:52:00,60.8,20.6,30.28,NE,49,1.0,2.0,21,0.00,,---,0.00,VWS V14.01,2013-03-13 17:52:00,
2013-03-13 10:57:00,60.6,18.1,30.28,NE,43,2.0,3.0,19,0.00,,---,0.00,VWS V14.01,2013-03-13 17:57:00,
2013-03-13 11:02:00,60.8,19.5,30.28,North,1,0.0,2.0,20,0.00,,---,0.00,VWS V14.01,2013-03-13 18:02:00,
2013-03-13 11:07:00,61.0,19.7,30.28,NNE,14,2.0,2.0,20,0.00,,---,0.00,VWS V14.01,2013-03-13 18:07:00,
2013-03-13 11:12:00,61.5,18.9,30.27,NE,34,0.0,0.0,19,0.00,,---,0.00,VWS V14.01,2013-03-13 18:12:00,
2013-03-13 11:17:00,61.8,19.1,30.27,East,82,1.0,3.0,19,0.00,,---,0.00,VWS V14.01,2013-03-13 18:17:00,
2013-03-13 11:22:00,62.0,20.5,30.27,NNW,327,4.0,4.0,20,0.00,,---,0.00,VWS V14.01,2013-03-13 18:22:00,
2013-03-13 11:27:00,62.0,20.5,30.27,ESE,105,1.0,2.0,20,0.00,,---,0.00,VWS V14.01,2013-03-13 18:27:00,
2013-03-13 11:32:00,62.2,19.5,30.27,NNE,27,1.0,10.0,19,0.00,,---,0.00,VWS V14.01,2013-03-13 18:32:00,
2013-03-13 11:37:00,62.4,20.8,30.27,NE,35,2.0,2.0,20,0.00,,---,0.00,VWS V14.01,2013-03-13 18:37:00,
2013-03-13 11:43:00,62.8,21.2,30.26,NNW,342,5.0,5.0,20,0.00,,---,0.00,VWS V14.01,2013-03-13 18:43:00,
2013-03-13 11:48:00,63.2,22.6,30.26,North,357,2.0,2.0,21,0.00,,---,0.00,VWS V14.01,2013-03-13 18:48:00,
2013-03-13 11:53:00,62.9,20.0,30.26,NE,47,3.0,8.0,19,0.00,,---,0.00,VWS V14.01,2013-03-13 18:53:00,
2013-03-13 11:58:00,62.6,22.1,30.26,ENE,77,1.0,1.0,21,0.00,,---,0.00,VWS V14.01,2013-03-13 18:58:00,
2013-03-13 12:03:00,62.7,21.1,30.26,NNE,33,2.0,2.0,20,0.00,,---,0.00,VWS V14.01,2013-03-13 19:03:00,
2013-03-13 12:08:00,63.0,21.3,30.25,North,11,4.0,5.0,20,0.00,,---,0.00,VWS V14.01,2013-03-13 19:08:00,
2013-03-13 12:13:00,62.6,21.0,30.25,NE,36,2.0,6.0,20,0.00,,---,0.00,VWS V14.01,2013-03-13 19:13:00,
2013-03-13 12:18:00,62.9,21.2,30.25,NNE,20,6.0,8.0,20,0.00,,---,0.00,VWS V14.01,2013-03-13 19:18:00,
2013-03-13 12:23:00,63.2,22.6,30.25,NE,55,1.0,4.0,21,0.00,,---,0.00,VWS V14.01,2013-03-13 19:23:00,
2013-03-13 12:28:00,63.2,20.3,30.25,NE,39,4.0,4.0,19,0.00,,---,0.00,VWS V14.01,2013-03-13 19:28:00,
2013-03-13 12:33:00,63.1,20.2,30.25,NNE,28,1.0,6.0,19,0.00,,---,0.00,VWS V14.01,2013-03-13 19:33:00,
2013-03-13 12:38:00,63.2,20.3,30.25,NNE,23,2.0,2.0,19,0.00,,---,0.00,VWS V14.01,2013-03-13 19:38:00,
2013-03-13 12:44:00,63.3,20.4,30.25,ESE,103,1.0,3.0,19,0.00,,---,0.00,VWS V14.01,2013-03-13 19:44:00,
2013-03-13 12:49:00,63.5,21.7,30.24,NNE,25,2.0,4.0,20,0.00,,---,0.00,VWS V14.01,2013-03-13 19:49:00,
2013-03-13 12:54:00,63.7,20.7,30.24,NNE,18,7.0,7.0,19,0.00,,---,0.00,VWS V14.01,2013-03-13 19:54:00,
2013-03-13 12:59:00,64.0,22.1,30.24,East,101,2.0,2.0,20,0.00,,---,0.00,VWS V14.01,2013-03-13 19:59:00,
2013-03-13 13:04:00,64.1,21.0,30.23,NE,51,6.0,6.0,19,0.00,,---,0.00,VWS V14.01,2013-03-13 20:04:00,
2013-03-13 13:09:00,63.8,20.8,30.23,NE,34,4.0,8.0,19,0.00,,---,0.00,VWS V14.01,2013-03-13 20:09:00,
2013-03-13 13:14:00,63.7,19.4,30.23,NE,51,3.0,3.0,18,0.00,,---,0.00,VWS V14.01,2013-03-13 20:14:00,
2013-03-13 13:19:00,63.8,20.8,30.23,NE,34,4.0,9.0,19,0.00,,---,0.00,VWS V14.01,2013-03-13 20:19:00,
2013-03-13 13:25:00,64.2,21.1,30.22,ENE,58,1.0,4.0,19,0.00,,---,0.00,VWS V14.01,2013-03-13 20:25:00,
2013-03-13 13:30:00,64.3,21.2,30.22,NE,34,5.0,5.0,19,0.00,,---,0.00,VWS V14.01,2013-03-13 20:30:00,
2013-03-13 13:35:00,64.5,21.4,30.22,North,1,4.0,5.0,19,0.00,,---,0.00,VWS V14.01,2013-03-13 20:35:00,
2013-03-13 13:40:00,64.3,19.9,30.21,ENE,65,4.0,6.0,18,0.00,,---,0.00,VWS V14.01,2013-03-13 20:40:00,
2013-03-13 13:45:00,64.0,19.7,30.21,North,11,0.0,5.0,18,0.00,,---,0.00,VWS V14.01,2013-03-13 20:45:00,
2013-03-13 13:50:00,64.4,21.3,30.21,NE,50,1.0,3.0,19,0.00,,---,0.00,VWS V14.01,2013-03-13 20:50:00,
2013-03-13 13:55:00,64.6,22.6,30.21,NNW,328,2.0,3.0,20,0.00,,---,0.00,VWS V14.01,2013-03-13 20:55:00,
2013-03-13 14:00:00,64.6,21.4,30.20,NNE,32,2.0,2.0,19,0.00,,---,0.00,VWS V14.01,2013-03-13 21:00:00,
2013-03-13 14:05:00,64.5,21.4,30.20,ENE,72,1.0,3.0,19,0.00,,---,0.00,VWS V14.01,2013-03-13 21:05:00,
2013-03-13 14:10:00,64.4,23.6,30.20,SSE,163,0.0,1.0,21,0.00,,---,0.00,VWS V14.01,2013-03-13 21:10:00,
2013-03-13 14:16:00,65.0,21.8,30.20,ENE,65,2.0,3.0,19,0.00,,---,0.00,VWS V14.01,2013-03-13 21:16:00,
2013-03-13 14:21:00,64.9,22.9,30.19,NNE,13,7.0,7.0,20,0.00,,---,0.00,VWS V14.01,2013-03-13 21:21:00,
2013-03-13 14:26:00,64.4,22.5,30.19,NE,56,3.0,3.0,20,0.00,,---,0.00,VWS V14.01,2013-03-13 21:26:00,
2013-03-13 14:31:00,64.7,22.7,30.19,East,85,1.0,5.0,20,0.00,,---,0.00,VWS V14.01,2013-03-13 21:31:00,
2013-03-13 14:38:00,65.0,21.8,30.18,ENE,75,3.0,5.0,19,0.00,,---,0.00,VWS V14.01,2013-03-13 21:38:00,
2013-03-13 14:43:00,64.8,21.6,30.18,North,8,2.0,4.0,19,0.00,,---,0.00,VWS V14.01,2013-03-13 21:43:00,
2013-03-13 14:48:00,64.9,21.7,30.18,ENE,72,3.0,3.0,19,0.00,,---,0.00,VWS V14.01,2013-03-13 21:48:00,
2013-03-13 14:53:00,65.2,21.9,30.18,ESE,103,1.0,2.0,19,0.00,,---,0.00,VWS V14.01,2013-03-13 21:53:00,
2013-03-13 14:58:00,65.2,20.7,30.18,SE,140,2.0,3.0,18,0.00,,---,0.00,VWS V14.01,2013-03-13 21:58:00,
2013-03-13 15:03:00,64.8,19.0,30.18,NNE,25,2.0,5.0,17,0.00,,---,0.00,VWS V14.01,2013-03-13 22:03:00,
2013-03-13 15:08:00,64.7,20.2,30.18,East,101,2.0,4.0,18,0.00,,---,0.00,VWS V14.01,2013-03-13 22:08:00,
2013-03-13 15:13:00,64.8,20.3,30.18,NE,34,3.0,4.0,18,0.00,,---,0.00,VWS V14.01,2013-03-13 22:13:00,
2013-03-13 15:19:00,64.7,20.2,30.18,ENE,60,1.0,1.0,18,0.00,,---,0.00,VWS V14.01,2013-03-13 22:19:00,
2013-03-13 15:24:00,64.7,20.2,30.18,ENE,77,3.0,3.0,18,0.00,,---,0.00,VWS V14.01,2013-03-13 22:24:00,
2013-03-13 15:29:00,64.5,21.4,30.18,NE,39,1.0,3.0,19,0.00,,---,0.00,VWS V14.01,2013-03-13 22:29:00,
2013-03-13 15:34:00,65.2,20.7,30.18,NNE,26,1.0,2.0,18,0.00,,---,0.00,VWS V14.01,2013-03-13 22:34:00,
2013-03-13 15:39:00,65.4,18.1,30.18,NNE,27,5.0,7.0,16,0.00,,---,0.00,VWS V14.01,2013-03-13 22:39:00,
2013-03-13 15:44:00,64.8,20.3,30.17,NE,38,2.0,2.0,18,0.00,,---,0.00,VWS V14.01,2013-03-13 22:44:00,
2013-03-13 15:49:00,64.6,20.2,30.17,NE,37,2.0,3.0,18,0.00,,---,0.00,VWS V14.01,2013-03-13 22:49:00,
2013-03-13 15:54:00,64.9,21.7,30.17,NNW,340,2.0,2.0,19,0.00,,---,0.00,VWS V14.01,2013-03-13 22:54:00,
2013-03-13 15:59:00,65.0,20.5,30.17,North,1,4.0,5.0,18,0.00,,---,0.00,VWS V14.01,2013-03-13 22:59:00,
2013-03-13 16:04:00,64.5,20.1,30.17,NNE,31,5.0,7.0,18,0.00,,---,0.00,VWS V14.01,2013-03-13 23:04:00,
2013-03-13 16:10:00,64.2,19.8,30.17,North,349,4.0,4.0,18,0.00,,---,0.00,VWS V14.01,2013-03-13 23:10:00,
2013-03-13 16:15:00,64.0,20.9,30.17,North,11,3.0,4.0,19,0.00,,---,0.00,VWS V14.01,2013-03-13 23:15:00,
2013-03-13 16:20:00,63.9,20.9,30.17,NE,43,2.0,3.0,19,0.00,,---,0.00,VWS V14.01,2013-03-13 23:20:00,
2013-03-13 16:25:00,63.9,20.9,30.16,NE,35,2.0,7.0,19,0.00,,---,0.00,VWS V14.01,2013-03-13 23:25:00,
2013-03-13 16:30:00,63.6,20.6,30.17,ENE,68,0.0,3.0,19,0.00,,---,0.00,VWS V14.01,2013-03-13 23:30:00,
2013-03-13 16:35:00,63.4,20.5,30.16,NNE,30,2.0,4.0,19,0.00,,---,0.00,VWS V14.01,2013-03-13 23:35:00,
2013-03-13 16:40:00,63.4,21.7,30.16,NNE,20,2.0,2.0,20,0.00,,---,0.00,VWS V14.01,2013-03-13 23:40:00,
2013-03-13 16:45:00,63.0,20.1,30.16,NE,43,5.0,5.0,19,0.00,,---,0.00,VWS V14.01,2013-03-13 23:45:00,
2013-03-13 16:50:00,62.9,20.0,30.16,NE,52,1.0,4.0,19,0.00,,---,0.00,VWS V14.01,2013-03-13 23:50:00,
2013-03-13 16:56:00,62.7,19.9,30.16,NE,41,0.0,0.0,19,0.00,,---,0.00,VWS V14.01,2013-03-13 23:56:00,
2013-03-13 17:01:00,62.6,19.8,30.16,NE,39,2.0,2.0,19,0.00,,---,0.00,VWS V14.01,2013-03-14 00:01:00,
2013-03-13 17:06:00,62.4,19.6,30.16,NE,38,0.0,2.0,19,0.00,,---,0.00,VWS V14.01,2013-03-14 00:06:00,
2013-03-13 17:11:00,62.1,19.4,30.16,NE,49,1.0,4.0,19,0.00,,---,0.00,VWS V14.01,2013-03-14 00:11:00,
2013-03-13 17:17:00,61.8,20.3,30.16,NNW,345,1.0,2.0,20,0.00,,---,0.00,VWS V14.01,2013-03-14 00:17:00,
2013-03-13 17:22:00,61.7,20.2,30.16,East,98,2.0,2.0,20,0.00,,---,0.00,VWS V14.01,2013-03-14 00:22:00,
2013-03-13 17:27:00,61.5,20.1,30.16,East,89,0.0,1.0,20,0.00,,---,0.00,VWS V14.01,2013-03-14 00:27:00,
2013-03-13 17:32:00,61.3,18.7,30.16,NNE,29,2.0,4.0,19,0.00,,---,0.00,VWS V14.01,2013-03-14 00:32:00,
2013-03-13 17:37:00,61.2,19.8,30.16,SE,145,1.0,1.0,20,0.00,,---,0.00,VWS V14.01,2013-03-14 00:37:00,
2013-03-13 17:42:00,60.9,18.4,30.16,NNE,32,2.0,2.0,19,0.00,,---,0.00,VWS V14.01,2013-03-14 00:42:00,
2013-03-13 17:48:00,60.9,19.6,30.16,NNE,16,0.0,0.0,20,0.00,,---,0.00,VWS V14.01,2013-03-14 00:48:00,
2013-03-13 17:53:00,60.8,19.5,30.15,ENE,68,0.0,0.0,20,0.00,,---,0.00,VWS V14.01,2013-03-14 00:53:00,
2013-03-13 17:58:00,60.6,19.3,30.16,NE,34,0.0,0.0,20,0.00,,---,0.00,VWS V14.01,2013-03-14 00:58:00,
2013-03-13 18:03:00,60.5,19.2,30.16,NE,34,0.0,0.0,20,0.00,,---,0.00,VWS V14.01,2013-03-14 01:03:00,
2013-03-13 18:08:00,60.3,19.1,30.16,NNE,16,1.0,1.0,20,0.00,,---,0.00,VWS V14.01,2013-03-14 01:08:00,
2013-03-13 18:13:00,60.1,18.9,30.16,NNE,21,0.0,0.0,20,0.00,,---,0.00,VWS V14.01,2013-03-14 01:13:00,
2013-03-13 18:19:00,59.8,19.8,30.16,NNE,21,0.0,0.0,21,0.00,,---,0.00,VWS V14.01,2013-03-14 01:19:00,
2013-03-13 18:24:00,59.2,19.3,30.16,NNE,21,0.0,0.0,21,0.00,,---,0.00,VWS V14.01,2013-03-14 01:24:00,
2013-03-13 18:29:00,58.7,20.0,30.16,NE,34,1.0,1.0,22,0.00,,---,0.00,VWS V14.01,2013-03-14 01:29:00,
2013-03-13 18:34:00,58.4,19.7,30.16,NE,34,0.0,0.0,22,0.00,,---,0.00,VWS V14.01,2013-03-14 01:34:00,
2013-03-13 18:39:00,57.9,20.4,30.16,NE,34,0.0,0.0,23,0.00,,---,0.00,VWS V14.01,2013-03-14 01:39:00,
2013-03-13 18:44:00,57.1,19.7,30.16,ENE,77,0.0,0.0,23,0.00,,---,0.00,VWS V14.01,2013-03-14 01:44:00,
2013-03-13 18:49:00,56.4,19.1,30.16,East,79,0.0,0.0,23,0.00,,---,0.00,VWS V14.01,2013-03-14 01:49:00,
2013-03-13 18:54:00,55.8,19.6,30.16,East,79,0.0,0.0,24,0.00,,---,0.00,VWS V14.01,2013-03-14 01:54:00,
2013-03-13 18:59:00,55.4,19.2,30.16,East,81,0.0,0.0,24,0.00,,---,0.00,VWS V14.01,2013-03-14 01:59:00,
2013-03-13 19:04:00,54.8,19.7,30.16,East,81,0.0,0.0,25,0.00,,---,0.00,VWS V14.01,2013-03-14 02:04:00,
2013-03-13 19:09:00,54.2,19.2,30.16,East,81,0.0,0.0,25,0.00,,---,0.00,VWS V14.01,2013-03-14 02:09:00,
2013-03-13 19:14:00,53.6,19.6,30.16,East,81,0.0,0.0,26,0.00,,---,0.00,VWS V14.01,2013-03-14 02:14:00,
2013-03-13 19:20:00,52.9,20.7,30.17,East,80,0.0,0.0,28,0.00,,---,0.00,VWS V14.01,2013-03-14 02:20:00,
2013-03-13 19:25:00,51.8,22.1,30.17,East,81,0.0,0.0,31,0.00,,---,0.00,VWS V14.01,2013-03-14 02:25:00,
2013-03-13 19:30:00,50.5,22.5,30.17,East,81,0.0,0.0,33,0.00,,---,0.00,VWS V14.01,2013-03-14 02:30:00,
2013-03-13 19:35:00,49.2,22.0,30.17,East,81,0.0,0.0,34,0.00,,---,0.00,VWS V14.01,2013-03-14 02:35:00,
2013-03-13 19:40:00,48.2,22.5,30.17,East,81,0.0,0.0,36,0.00,,---,0.00,VWS V14.01,2013-03-14 02:40:00,
2013-03-13 19:45:00,47.2,22.3,30.17,East,81,0.0,0.0,37,0.00,,---,0.00,VWS V14.01,2013-03-14 02:45:00,
2013-03-13 19:50:00,46.4,21.6,30.18,East,82,0.0,0.0,37,0.00,,---,0.00,VWS V14.01,2013-03-14 02:50:00,
2013-03-13 19:55:00,45.9,21.1,30.18,East,82,0.0,0.0,37,0.00,,---,0.00,VWS V14.01,2013-03-14 02:55:00,
2013-03-13 20:00:00,45.7,20.9,30.18,East,82,0.0,0.0,37,0.00,,---,0.00,VWS V14.01,2013-03-14 03:00:00,
2013-03-13 20:05:00,45.3,21.8,30.19,East,82,0.0,0.0,39,0.00,,---,0.00,VWS V14.01,2013-03-14 03:05:00,
2013-03-13 20:10:00,44.5,21.7,30.19,East,82,0.0,0.0,40,0.00,,---,0.00,VWS V14.01,2013-03-14 03:10:00,
2013-03-13 20:15:00,43.8,21.6,30.19,East,82,0.0,0.0,41,0.00,,---,0.00,VWS V14.01,2013-03-14 03:15:00,
2013-03-13 20:20:00,43.2,21.1,30.19,East,82,0.0,0.0,41,0.00,,---,0.00,VWS V14.01,2013-03-14 03:20:00,
2013-03-13 20:26:00,42.6,21.7,30.19,East,82,0.0,0.0,43,0.00,,---,0.00,VWS V14.01,2013-03-14 03:26:00,
2013-03-13 20:31:00,41.9,22.6,30.20,East,82,0.0,0.0,46,0.00,,---,0.00,VWS V14.01,2013-03-14 03:31:00,
2013-03-13 20:36:00,41.2,23.0,30.20,East,82,0.0,0.0,48,0.00,,---,0.00,VWS V14.01,2013-03-14 03:36:00,
2013-03-13 20:42:00,40.4,22.8,30.20,East,82,0.0,0.0,49,0.00,,---,0.00,VWS V14.01,2013-03-14 03:42:00,
2013-03-13 20:47:00,40.1,22.0,30.20,East,82,0.0,0.0,48,0.00,,---,0.00,VWS V14.01,2013-03-14 03:47:00,
2013-03-13 20:52:00,39.8,21.2,30.20,East,82,0.0,0.0,47,0.00,,---,0.00,VWS V14.01,2013-03-14 03:52:00,
2013-03-13 20:57:00,39.6,21.0,30.20,East,82,0.0,0.0,47,0.00,,---,0.00,VWS V14.01,2013-03-14 03:57:00,
2013-03-13 21:00:00,39.5,21.0,30.20,East,82,0.0,0.0,47,0.00,,---,0.00,VWS V14.01,2013-03-14 04:00:00,
2013-03-13 21:02:00,39.4,21.4,30.20,East,82,0.0,0.0,48,0.00,,---,0.00,VWS V14.01,2013-03-14 04:02:00,
2013-03-13 21:04:00,39.3,21.3,30.20,East,82,0.0,0.0,48,0.00,,---,0.00,VWS V14.01,2013-03-14 04:04:00,
2013-03-13 21:09:00,39.4,21.8,30.20,East,82,0.0,0.0,49,0.00,,---,0.00,VWS V14.01,2013-03-14 04:09:00,
2013-03-13 21:10:00,39.5,21.5,30.20,East,82,0.0,0.0,48,0.00,,---,0.00,VWS V14.01,2013-03-14 04:10:00,
2013-03-13 21:15:00,39.7,20.6,30.20,East,82,0.0,0.0,46,0.00,,---,0.00,VWS V14.01,2013-03-14 04:15:00,
2013-03-13 21:20:00,39.5,21.5,30.21,East,82,0.0,0.0,48,0.00,,---,0.00,VWS V14.01,2013-03-14 04:20:00,
2013-03-13 21:26:00,39.0,22.9,30.21,East,82,0.0,0.0,52,0.00,,---,0.00,VWS V14.01,2013-03-14 04:26:00,
2013-03-13 21:31:00,38.5,22.0,30.22,East,82,0.0,0.0,51,0.00,,---,0.00,VWS V14.01,2013-03-14 04:31:00,
2013-03-13 21:36:00,38.1,21.1,30.22,East,82,0.0,0.0,50,0.00,,---,0.00,VWS V14.01,2013-03-14 04:36:00,
2013-03-13 21:41:00,37.8,20.8,30.22,East,82,0.0,0.0,50,0.00,,---,0.00,VWS V14.01,2013-03-14 04:41:00,
2013-03-13 21:46:00,37.5,20.1,30.22,East,82,0.0,0.0,49,0.00,,---,0.00,VWS V14.01,2013-03-14 04:46:00,
2013-03-13 21:51:00,37.3,19.9,30.22,East,82,0.0,0.0,49,0.00,,---,0.00,VWS V14.01,2013-03-14 04:51:00,
2013-03-13 21:57:00,36.7,18.9,30.22,East,82,0.0,0.0,48,0.00,,---,0.00,VWS V14.01,2013-03-14 04:57:00,
2013-03-13 22:02:00,36.6,18.8,30.22,East,82,0.0,0.0,48,0.00,,---,0.00,VWS V14.01,2013-03-14 05:02:00,
2013-03-13 22:07:00,36.5,18.2,30.22,East,82,0.0,0.0,47,0.00,,---,0.00,VWS V14.01,2013-03-14 05:07:00,
2013-03-13 22:12:00,36.4,18.1,30.22,East,82,0.0,0.0,47,0.00,,---,0.00,VWS V14.01,2013-03-14 05:12:00,
2013-03-13 22:17:00,36.3,18.5,30.22,East,82,0.0,0.0,48,0.00,,---,0.00,VWS V14.01,2013-03-14 05:17:00,
2013-03-13 22:22:00,36.1,17.8,30.23,East,82,0.0,0.0,47,0.00,,---,0.00,VWS V14.01,2013-03-14 05:22:00,
2013-03-13 22:27:00,36.1,17.8,30.23,East,82,0.0,0.0,47,0.00,,---,0.00,VWS V14.01,2013-03-14 05:27:00,
2013-03-13 22:32:00,36.2,17.9,30.23,East,82,0.0,0.0,47,0.00,,---,0.00,VWS V14.01,2013-03-14 05:32:00,
2013-03-13 22:37:00,36.3,18.5,30.23,East,82,0.0,0.0,48,0.00,,---,0.00,VWS V14.01,2013-03-14 05:37:00,
2013-03-13 22:42:00,36.4,20.5,30.23,East,82,0.0,0.0,52,0.00,,---,0.00,VWS V14.01,2013-03-14 05:42:00,
2013-03-13 22:47:00,36.3,20.4,30.23,East,82,0.0,0.0,52,0.00,,---,0.00,VWS V14.01,2013-03-14 05:47:00,
2013-03-13 22:53:00,36.1,20.2,30.22,East,82,0.0,0.0,52,0.00,,---,0.00,VWS V14.01,2013-03-14 05:53:00,
2013-03-13 22:58:00,35.8,19.9,30.22,East,82,0.0,0.0,52,0.00,,---,0.00,VWS V14.01,2013-03-14 05:58:00,
2013-03-13 23:03:00,35.5,21.0,30.22,East,82,0.0,0.0,55,0.00,,---,0.00,VWS V14.01,2013-03-14 06:03:00,
2013-03-13 23:08:00,35.0,20.5,30.22,East,82,0.0,0.0,55,0.00,,---,0.00,VWS V14.01,2013-03-14 06:08:00,
2013-03-13 23:13:00,34.6,19.7,30.22,East,82,0.0,0.0,54,0.00,,---,0.00,VWS V14.01,2013-03-14 06:13:00,
2013-03-13 23:18:00,34.7,18.9,30.22,East,82,0.0,0.0,52,0.00,,---,0.00,VWS V14.01,2013-03-14 06:18:00,
2013-03-13 23:23:00,34.7,18.9,30.22,East,82,0.0,0.0,52,0.00,,---,0.00,VWS V14.01,2013-03-14 06:23:00,
2013-03-13 23:28:00,34.7,19.3,30.22,East,82,0.0,0.0,53,0.00,,---,0.00,VWS V14.01,2013-03-14 06:28:00,
2013-03-13 23:33:00,34.4,19.5,30.22,East,82,0.0,0.0,54,0.00,,---,0.00,VWS V14.01,2013-03-14 06:33:00,
2013-03-13 23:38:00,34.2,19.7,30.22,East,82,0.0,0.0,55,0.00,,---,0.00,VWS V14.01,2013-03-14 06:38:00,
2013-03-13 23:43:00,34.0,19.5,30.22,East,82,0.0,0.0,55,0.00,,---,0.00,VWS V14.01,2013-03-14 06:43:00,
2013-03-13 23:48:00,34.1,19.6,30.22,East,82,0.0,0.0,55,0.00,,---,0.00,VWS V14.01,2013-03-14 06:48:00,
2013-03-13 23:53:00,33.9,19.0,30.22,East,82,0.0,0.0,54,0.00,,---,0.00,VWS V14.01,2013-03-14 06:53:00,
2013-03-13 23:58:00,33.7,18.8,30.22,East,82,0.0,0.0,54,0.00,,---,0.00,VWS V14.01,2013-03-14 06:58:00,